createdAt,value
2023-02-24T00:02:00.386Z,11.65
2023-02-24T00:04:30.232Z,12.00
2023-02-24T00:06:57.371Z,11.50
2023-02-24T00:09:26.609Z,10.90
2023-02-24T00:12:05.592Z,10.13
2023-02-24T00:14:38.126Z,9.35
2023-02-24T00:17:08.301Z,9.45
2023-02-24T00:19:36.217Z,10.38
2023-02-24T00:22:05.396Z,9.82
2023-02-24T00:24:32.778Z,10.20
2023-02-24T00:27:01.729Z,10.00
2023-02-24T00:29:30.513Z,9.93
2023-02-24T00:32:03.833Z,11.35
2023-02-24T00:34:33.928Z,11.77
2023-02-24T00:37:01.530Z,12.57
2023-02-24T00:39:35.255Z,13.63
2023-02-24T00:42:05.058Z,14.00
2023-02-24T00:44:46.135Z,13.63
2023-02-24T00:47:16.408Z,13.03
2023-02-24T00:49:44.749Z,12.53
2023-02-24T00:52:14.238Z,12.15
2023-02-24T00:54:42.520Z,12.93
2023-02-24T00:57:09.982Z,12.65
2023-02-24T00:59:38.272Z,13.70
2023-02-24T01:02:07.333Z,12.93
2023-02-24T01:04:34.905Z,13.57
2023-02-24T01:07:02.125Z,11.98
2023-02-24T01:09:31.377Z,12.90
2023-02-24T01:12:22.316Z,13.30
2023-02-24T01:14:51.695Z,11.80
2023-02-24T01:17:20.539Z,14.70
2023-02-24T01:19:49.550Z,14.63
2023-02-24T01:22:18.972Z,15.43
2023-02-24T01:24:46.329Z,14.27
2023-02-24T01:27:14.736Z,14.27
2023-02-24T01:29:41.710Z,14.57
2023-02-24T01:32:13.682Z,15.20
2023-02-24T01:34:42.576Z,15.60
2023-02-24T01:37:10.219Z,14.52
2023-02-24T01:39:37.445Z,14.07
2023-02-24T01:42:06.531Z,15.90
2023-02-24T01:44:33.423Z,14.90
2023-02-24T01:47:04.105Z,15.93
2023-02-24T01:49:39.052Z,15.57
2023-02-24T01:52:14.745Z,15.27
2023-02-24T01:54:52.127Z,15.23
2023-02-24T01:57:23.829Z,16.20
2023-02-24T01:59:54.107Z,16.92
2023-02-24T02:02:23.440Z,17.40
2023-02-24T02:04:57.400Z,16.83
2023-02-24T02:07:26.939Z,16.13
2023-02-24T02:09:56.192Z,16.45
2023-02-24T02:12:24.394Z,15.77
2023-02-24T02:14:54.935Z,18.23
2023-02-24T02:17:21.873Z,17.80
2023-02-24T02:19:58.085Z,18.17
2023-02-24T02:22:46.146Z,19.13
2023-02-24T02:25:19.079Z,19.67
2023-02-24T02:28:04.062Z,17.40
2023-02-24T02:30:32.175Z,19.45
2023-02-24T02:33:21.609Z,19.07
2023-02-24T02:36:17.421Z,19.38
2023-02-24T02:38:59.351Z,19.77
2023-02-24T02:41:48.556Z,18.73
2023-02-24T02:44:59.936Z,19.15
2023-02-24T02:47:35.072Z,18.57
2023-02-24T02:50:09.236Z,18.43
2023-02-24T02:52:43.998Z,19.67
2023-02-24T02:55:18.976Z,20.45
2023-02-24T02:57:49.389Z,20.00
2023-02-24T03:00:29.368Z,21.13
2023-02-24T03:03:06.324Z,20.60
2023-02-24T03:05:49.674Z,19.77
2023-02-24T03:08:23.204Z,23.37
2023-02-24T03:10:52.338Z,22.00
2023-02-24T03:13:25.862Z,21.10
2023-02-24T03:15:53.895Z,20.15
2023-02-24T03:18:32.303Z,21.00
2023-02-24T03:21:45.623Z,20.83
2023-02-24T03:24:15.550Z,19.13
2023-02-24T03:26:50.228Z,18.65
2023-02-24T03:29:33.468Z,19.33
2023-02-24T03:32:22.064Z,20.20
2023-02-24T03:34:59.508Z,20.90
2023-02-24T03:37:30.002Z,19.23
2023-02-24T03:40:14.757Z,20.05
2023-02-24T03:42:46.212Z,18.60
2023-02-24T03:45:13.663Z,20.07
2023-02-24T03:47:41.687Z,19.77
2023-02-24T03:50:15.480Z,18.10
2023-02-24T03:53:18.104Z,19.80
2023-02-24T03:56:01.040Z,18.40
2023-02-24T03:58:46.243Z,19.47
2023-02-24T04:01:25.559Z,20.15
2023-02-24T04:03:58.311Z,20.43
2023-02-24T04:06:56.229Z,20.47
2023-02-24T04:10:09.551Z,19.47
2023-02-24T04:12:47.198Z,20.70
2023-02-24T04:15:29.733Z,21.20
2023-02-24T04:18:03.309Z,20.83
2023-02-24T04:20:34.290Z,20.63
2023-02-24T04:23:08.973Z,18.87
2023-02-24T04:25:37.038Z,20.73
2023-02-24T04:28:08.117Z,20.83
2023-02-24T04:30:39.149Z,22.83
2023-02-24T04:33:06.264Z,19.87
2023-02-24T04:35:34.216Z,20.60
2023-02-24T04:38:01.241Z,21.13
2023-02-24T04:40:28.192Z,19.63
2023-02-24T04:42:55.355Z,21.53
2023-02-24T04:45:30.733Z,22.23
2023-02-24T04:48:02.338Z,22.13
2023-02-24T04:50:36.915Z,21.73
2023-02-24T04:53:10.797Z,22.85
2023-02-24T04:55:40.593Z,23.97
2023-02-24T04:58:11.946Z,22.33
2023-02-24T05:00:41.667Z,24.07
2023-02-24T05:03:11.657Z,24.33
2023-02-24T05:05:38.735Z,22.47
2023-02-24T05:08:07.223Z,23.10
2023-02-24T05:10:38.740Z,22.97
2023-02-24T05:13:09.439Z,23.87
2023-02-24T05:15:40.774Z,23.87
2023-02-24T05:18:11.233Z,23.83
2023-02-24T05:21:00.809Z,22.80
2023-02-24T05:23:39.362Z,22.90
2023-02-24T05:26:10.660Z,21.57
2023-02-24T05:28:40.833Z,22.23
2023-02-24T05:31:11.951Z,22.57
2023-02-24T05:33:39.584Z,21.73
2023-02-24T05:36:08.856Z,23.87
2023-02-24T05:38:38.332Z,21.47
2023-02-24T05:41:18.677Z,23.27
2023-02-24T05:43:48.314Z,22.60
2023-02-24T05:46:16.570Z,22.13
2023-02-24T05:48:44.115Z,23.83
2023-02-24T05:51:12.504Z,23.83
2023-02-24T05:53:43.305Z,22.50
2023-02-24T05:56:11.002Z,23.67
2023-02-24T05:58:45.048Z,20.20
2023-02-24T06:01:16.516Z,22.97
2023-02-24T06:03:48.160Z,21.57
2023-02-24T06:06:16.781Z,20.90
2023-02-24T06:08:50.768Z,19.30
2023-02-24T06:11:19.912Z,20.70
2023-02-24T06:13:50.547Z,20.43
2023-02-24T06:16:18.925Z,17.93
2023-02-24T06:18:50.154Z,19.50
2023-02-24T06:21:17.374Z,20.17
2023-02-24T06:23:45.520Z,18.90
2023-02-24T06:26:19.604Z,19.20
2023-02-24T06:28:48.106Z,22.37
2023-02-24T06:31:15.232Z,22.23
2023-02-24T06:33:42.506Z,20.90
2023-02-24T06:36:09.702Z,20.17
2023-02-24T06:38:37.611Z,22.07
2023-02-24T06:41:10.970Z,20.93
2023-02-24T06:43:43.434Z,21.10
2023-02-24T06:46:12.982Z,21.00
2023-02-24T06:48:40.144Z,20.87
2023-02-24T06:51:19.928Z,21.53
2023-02-24T06:53:47.051Z,21.37
2023-02-24T06:56:18.182Z,21.67
2023-02-24T06:58:47.281Z,22.00
2023-02-24T07:01:25.912Z,21.63
2023-02-24T07:04:14.240Z,22.23
2023-02-24T07:06:43.070Z,22.23
2023-02-24T07:09:13.189Z,23.60
2023-02-24T07:11:42.621Z,23.37
2023-02-24T07:14:11.474Z,28.23
2023-02-24T07:16:45.810Z,25.80
2023-02-24T07:19:15.601Z,27.70
2023-02-24T07:21:46.791Z,28.03
2023-02-24T07:24:24.785Z,27.53
2023-02-24T07:27:00.749Z,26.37
2023-02-24T07:29:29.914Z,24.50
2023-02-24T07:32:01.793Z,24.83
2023-02-24T07:34:29.508Z,24.80
2023-02-24T07:36:57.567Z,26.47
2023-02-24T07:39:25.691Z,26.20
2023-02-24T07:41:57.283Z,24.83
2023-02-24T07:44:24.598Z,25.33
2023-02-24T07:46:52.057Z,25.07
2023-02-24T07:49:26.057Z,24.57
2023-02-24T07:51:57.820Z,25.47
2023-02-24T07:54:30.059Z,25.93
2023-02-24T07:56:59.483Z,24.13
2023-02-24T07:59:34.082Z,26.50
2023-02-24T08:02:04.973Z,26.25
2023-02-24T08:04:39.746Z,25.70
2023-02-24T08:07:14.396Z,26.43
2023-02-24T08:09:41.705Z,25.23
2023-02-24T08:12:08.718Z,27.80
2023-02-24T08:14:44.511Z,26.60
2023-02-24T08:17:16.639Z,26.30
2023-02-24T08:19:43.508Z,26.67
2023-02-24T08:22:19.827Z,25.53
2023-02-24T08:25:00.747Z,25.57
2023-02-24T08:27:32.541Z,27.27
2023-02-24T08:30:04.015Z,26.67
2023-02-24T08:32:43.545Z,25.83
2023-02-24T08:35:15.570Z,25.42
2023-02-24T08:37:47.128Z,26.75
2023-02-24T08:40:33.028Z,25.65
2023-02-24T08:43:24.496Z,26.80
2023-02-24T08:46:13.385Z,26.55
2023-02-24T08:48:42.597Z,27.67
2023-02-24T08:51:28.742Z,24.92
2023-02-24T08:54:15.646Z,25.05
2023-02-24T08:56:56.175Z,25.15
2023-02-24T08:59:50.029Z,23.70
2023-02-24T09:02:24.603Z,24.85
2023-02-24T09:04:56.914Z,23.77
2023-02-24T09:07:30.301Z,24.23
2023-02-24T09:10:00.312Z,24.08
2023-02-24T09:12:29.512Z,24.63
2023-02-24T09:15:07.657Z,24.65
2023-02-24T09:17:41.001Z,26.15
2023-02-24T09:20:27.661Z,23.55
2023-02-24T09:23:07.617Z,24.20
2023-02-24T09:25:44.978Z,24.17
2023-02-24T09:28:17.755Z,26.15
2023-02-24T09:30:53.487Z,23.70
2023-02-24T09:33:24.207Z,23.98
2023-02-24T09:35:52.967Z,23.77
2023-02-24T09:38:46.726Z,24.20
2023-02-24T09:41:46.835Z,23.52
2023-02-24T09:44:19.796Z,27.17
2023-02-24T09:47:37.739Z,26.95
2023-02-24T09:50:40.383Z,25.35
2023-02-24T09:53:17.561Z,23.35
2023-02-24T09:56:04.036Z,24.80
2023-02-24T09:58:51.096Z,23.67
2023-02-24T10:01:42.955Z,22.83
2023-02-24T10:04:49.400Z,23.52
2023-02-24T10:07:22.853Z,23.27
2023-02-24T10:09:55.875Z,23.48
2023-02-24T10:12:40.218Z,22.42
2023-02-24T10:15:21.096Z,22.23
2023-02-24T10:18:00.047Z,21.25
2023-02-24T10:20:44.724Z,23.80
2023-02-24T10:23:29.779Z,23.17
2023-02-24T10:26:07.356Z,22.77
2023-02-24T10:28:59.517Z,22.15
2023-02-24T10:31:46.132Z,24.33
2023-02-24T10:34:27.446Z,23.40
2023-02-24T10:36:57.618Z,24.43
2023-02-24T10:39:26.223Z,24.13
2023-02-24T10:41:59.157Z,21.95
2023-02-24T10:44:36.558Z,21.63
2023-02-24T10:47:11.890Z,23.25
2023-02-24T10:49:59.483Z,22.88
2023-02-24T10:52:56.893Z,22.80
2023-02-24T10:55:44.039Z,20.80
2023-02-24T10:58:28.457Z,20.52
2023-02-24T11:01:07.675Z,20.05
2023-02-24T11:03:46.191Z,20.67
2023-02-24T11:06:40.598Z,20.88
2023-02-24T11:09:28.324Z,20.42
2023-02-24T11:12:24.345Z,22.25
2023-02-24T11:15:13.529Z,20.60
2023-02-24T11:17:58.905Z,20.27
2023-02-24T11:20:49.305Z,20.25
2023-02-24T11:23:24.810Z,19.25
2023-02-24T11:25:58.380Z,19.83
2023-02-24T11:28:47.744Z,20.75
2023-02-24T11:31:39.402Z,19.77
2023-02-24T11:34:36.603Z,19.23
2023-02-24T11:37:32.359Z,17.95
2023-02-24T11:40:11.774Z,17.85
2023-02-24T11:42:59.006Z,19.90
2023-02-24T11:45:35.645Z,16.33
2023-02-24T11:48:27.548Z,17.52
2023-02-24T11:51:15.416Z,16.50
2023-02-24T11:54:05.925Z,16.90
2023-02-24T11:56:50.318Z,16.52
2023-02-24T11:59:17.848Z,16.55
2023-02-24T12:02:21.568Z,17.63
2023-02-24T12:04:54.296Z,18.48
2023-02-24T12:07:39.137Z,17.98
2023-02-24T12:10:29.095Z,17.48
2023-02-24T12:13:11.224Z,17.35
2023-02-24T12:15:56.815Z,16.42
2023-02-24T12:18:30.680Z,17.63
2023-02-24T12:21:06.863Z,17.63
2023-02-24T12:23:43.888Z,17.17
2023-02-24T12:26:39.897Z,17.92
2023-02-24T12:29:24.869Z,17.13
2023-02-24T12:32:30.545Z,17.13
2023-02-24T12:35:11.907Z,17.02
2023-02-24T12:37:51.223Z,16.73
2023-02-24T12:40:47.045Z,16.73
2023-02-24T12:43:35.663Z,16.45
2023-02-24T12:46:14.960Z,16.45
2023-02-24T12:49:04.746Z,16.90
2023-02-24T12:51:52.312Z,15.20
2023-02-24T12:54:51.358Z,16.50
2023-02-24T12:57:43.327Z,23.48
2023-02-24T13:00:18.300Z,16.95
2023-02-24T13:03:00.854Z,16.70
2023-02-24T13:05:37.602Z,16.42
2023-02-24T13:08:40.100Z,18.10
2023-02-24T13:11:42.638Z,17.95
2023-02-24T13:14:25.116Z,18.25
2023-02-24T13:17:02.734Z,19.25
2023-02-24T13:19:30.836Z,19.42
2023-02-24T13:22:07.338Z,19.52
2023-02-24T13:24:35.013Z,20.95
2023-02-24T13:27:15.044Z,19.20
2023-02-24T13:29:50.722Z,21.05
2023-02-24T13:32:39.306Z,19.02
2023-02-24T13:35:26.633Z,18.25
2023-02-24T13:37:54.509Z,16.77
2023-02-24T13:40:27.309Z,18.27
2023-02-24T13:43:00.050Z,20.13
2023-02-24T13:45:39.935Z,17.98
2023-02-24T13:48:37.147Z,18.20
2023-02-24T13:51:18.753Z,16.58
2023-02-24T13:54:07.474Z,19.20
2023-02-24T13:56:55.588Z,20.10
2023-02-24T13:59:43.793Z,17.13
2023-02-24T14:02:17.618Z,17.98
2023-02-24T14:04:56.798Z,17.02
2023-02-24T14:07:29.650Z,16.92
2023-02-24T14:10:31.481Z,16.73
2023-02-24T14:13:15.005Z,15.13
2023-02-24T14:15:44.892Z,16.55
2023-02-24T14:18:25.361Z,16.40
2023-02-24T14:20:53.674Z,15.82
2023-02-24T14:23:25.332Z,17.55
2023-02-24T14:26:00.639Z,14.75
2023-02-24T14:28:37.009Z,20.83
2023-02-24T14:31:15.785Z,18.17
2023-02-24T14:33:45.038Z,14.63
2023-02-24T14:36:23.890Z,14.82
2023-02-24T14:39:22.101Z,16.55
2023-02-24T14:41:51.319Z,14.88
2023-02-24T14:44:30.110Z,14.80
2023-02-24T14:46:59.504Z,15.07
2023-02-24T14:49:31.950Z,14.55
2023-02-24T14:52:25.669Z,16.08
2023-02-24T14:55:17.653Z,14.60
2023-02-24T14:58:06.956Z,15.10
2023-02-24T15:00:37.826Z,15.48
2023-02-24T15:03:12.688Z,17.52
2023-02-24T15:05:44.631Z,17.05
2023-02-24T15:08:25.678Z,14.98
2023-02-24T15:10:53.116Z,13.77
2023-02-24T15:13:28.421Z,14.88
2023-02-24T15:15:57.106Z,14.15
2023-02-24T15:18:29.252Z,13.73
2023-02-24T15:21:18.519Z,13.50
2023-02-24T15:23:47.755Z,13.43
2023-02-24T15:26:29.677Z,14.60
2023-02-24T15:29:02.079Z,15.60
2023-02-24T15:31:29.799Z,14.15
2023-02-24T15:34:02.334Z,15.02
2023-02-24T15:36:33.721Z,16.70
2023-02-24T15:39:05.573Z,15.77
2023-02-24T15:41:43.054Z,15.10
2023-02-24T15:44:30.436Z,14.95
2023-02-24T15:46:59.502Z,14.95
2023-02-24T15:49:26.777Z,14.98
2023-02-24T15:51:54.775Z,14.20
2023-02-24T15:54:35.241Z,13.75
2023-02-24T15:57:03.220Z,14.65
2023-02-24T15:59:30.284Z,14.77
2023-02-24T16:01:57.540Z,13.37
2023-02-24T16:04:26.953Z,13.85
2023-02-24T16:06:56.585Z,14.00
2023-02-24T16:09:36.791Z,14.80
2023-02-24T16:12:10.974Z,13.90
2023-02-24T16:14:38.829Z,12.70
2023-02-24T16:17:10.854Z,12.90
2023-02-24T16:19:38.051Z,11.32
2023-02-24T16:22:05.064Z,12.35
2023-02-24T16:24:32.213Z,13.00
2023-02-24T16:26:59.151Z,12.30
2023-02-24T16:29:26.469Z,12.15
2023-02-24T16:31:53.718Z,13.52
2023-02-24T16:34:20.904Z,13.07
2023-02-24T16:36:48.371Z,12.40
2023-02-24T16:39:15.310Z,17.20
2023-02-24T16:41:42.266Z,23.58
2023-02-24T16:44:10.670Z,14.48
2023-02-24T16:46:41.271Z,13.32
2023-02-24T16:49:13.054Z,12.90
2023-02-24T16:51:40.660Z,14.20
2023-02-24T16:54:08.440Z,12.53
2023-02-24T16:56:35.488Z,12.07
2023-02-24T16:59:02.458Z,13.87
2023-02-24T17:01:29.495Z,13.67
2023-02-24T17:03:56.757Z,14.13
2023-02-24T17:06:25.082Z,14.40
2023-02-24T17:08:52.577Z,12.77
2023-02-24T17:11:21.891Z,12.60
2023-02-24T17:13:48.828Z,13.33
2023-02-24T17:16:15.839Z,13.60
2023-02-24T17:18:42.813Z,12.47
2023-02-24T17:21:14.653Z,13.13
2023-02-24T17:23:42.698Z,12.57
2023-02-24T17:26:13.939Z,12.17
2023-02-24T17:28:41.119Z,13.27
2023-02-24T17:31:08.148Z,11.93
2023-02-24T17:33:35.209Z,13.13
2023-02-24T17:36:02.257Z,12.63
2023-02-24T17:38:31.775Z,14.43
2023-02-24T17:40:58.994Z,13.43
2023-02-24T17:43:26.094Z,13.57
2023-02-24T17:45:53.875Z,13.93
2023-02-24T17:48:21.783Z,14.37
2023-02-24T17:50:49.328Z,13.43
2023-02-24T17:53:16.443Z,14.33
2023-02-24T17:55:59.960Z,14.57
2023-02-24T17:58:29.085Z,13.90
2023-02-24T18:00:56.306Z,15.37
2023-02-24T18:03:23.522Z,15.57
2023-02-24T18:05:59.260Z,14.23
2023-02-24T18:08:26.236Z,16.43
2023-02-24T18:10:53.346Z,16.07
2023-02-24T18:13:20.292Z,14.47
2023-02-24T18:15:47.246Z,16.63
2023-02-24T18:18:14.278Z,16.97
2023-02-24T18:20:45.522Z,14.97
2023-02-24T18:23:13.014Z,14.53
2023-02-24T18:25:40.045Z,15.20
2023-02-24T18:28:07.311Z,16.10
2023-02-24T18:30:34.917Z,16.27
2023-02-24T18:33:04.488Z,15.50
2023-02-24T18:35:31.572Z,15.57
2023-02-24T18:37:58.537Z,15.43
2023-02-24T18:40:29.696Z,15.83
2023-02-24T18:42:56.883Z,15.60
2023-02-24T18:45:24.171Z,15.90
2023-02-24T18:47:52.947Z,15.40
2023-02-24T18:50:20.759Z,15.63
2023-02-24T18:52:47.810Z,16.43
2023-02-24T18:55:14.696Z,16.97
2023-02-24T18:57:41.762Z,14.70
2023-02-24T19:00:13.219Z,16.63
2023-02-24T19:02:41.063Z,16.03
2023-02-24T19:05:08.716Z,15.63
2023-02-24T19:07:35.732Z,15.63
2023-02-24T19:10:02.686Z,16.13
2023-02-24T19:12:29.695Z,16.73
2023-02-24T19:14:56.804Z,14.63
2023-02-24T19:17:23.803Z,12.87
2023-02-24T19:19:50.774Z,11.53
2023-02-24T19:22:17.772Z,9.40
2023-02-24T19:24:44.731Z,9.63
2023-02-24T19:27:11.743Z,7.87
2023-02-24T19:29:38.693Z,9.23
2023-02-24T19:32:05.903Z,7.47
2023-02-24T19:34:32.959Z,8.10
2023-02-24T19:36:59.958Z,7.83
2023-02-24T19:39:26.888Z,7.70
2023-02-24T19:41:54.881Z,6.87
2023-02-24T19:44:21.833Z,8.03
2023-02-24T19:46:48.898Z,7.40
2023-02-24T19:49:15.932Z,7.23
2023-02-24T19:51:43.686Z,7.23
2023-02-24T19:54:12.495Z,6.93
2023-02-24T19:56:39.619Z,7.27
2023-02-24T19:59:11.493Z,7.90
2023-02-24T20:01:38.500Z,7.53
2023-02-24T20:04:05.952Z,7.47
2023-02-24T20:06:36.228Z,6.87
2023-02-24T20:09:07.186Z,6.87
2023-02-24T20:11:40.181Z,6.57
2023-02-24T20:14:08.841Z,7.00
2023-02-24T20:16:38.013Z,6.00
2023-02-24T20:19:07.112Z,6.43
2023-02-24T20:21:34.315Z,6.47
2023-02-24T20:24:05.932Z,5.87
2023-02-24T20:26:33.320Z,6.87
2023-02-24T20:29:00.971Z,5.70
2023-02-24T20:31:28.698Z,7.40
2023-02-24T20:33:56.569Z,9.20
2023-02-24T20:36:26.450Z,9.10
2023-02-24T20:38:54.349Z,8.57
2023-02-24T20:41:22.336Z,7.33
2023-02-24T20:43:49.784Z,5.87
2023-02-24T20:46:25.214Z,6.23
2023-02-24T20:48:56.092Z,6.30
2023-02-24T20:51:23.824Z,5.23
2023-02-24T20:53:57.833Z,5.63
2023-02-24T20:56:29.437Z,5.03
2023-02-24T20:59:17.368Z,4.47
2023-02-24T21:01:47.282Z,3.60
2023-02-24T21:04:15.411Z,4.23
2023-02-24T21:06:43.126Z,3.53
2023-02-24T21:09:12.074Z,2.77
2023-02-24T21:11:39.389Z,3.10
2023-02-24T21:14:07.217Z,2.90
2023-02-24T21:16:37.207Z,2.90
2023-02-24T21:19:04.303Z,2.80
2023-02-24T21:21:31.238Z,2.40
2023-02-24T21:23:58.188Z,2.50
2023-02-24T21:26:27.096Z,2.30
2023-02-24T21:28:57.608Z,2.40
2023-02-24T21:31:26.191Z,2.53
2023-02-24T21:33:54.522Z,2.10
2023-02-24T21:36:25.749Z,2.20
2023-02-24T21:38:53.697Z,2.33
2023-02-24T21:41:21.418Z,2.20
2023-02-24T21:43:52.466Z,2.00
2023-02-24T21:46:19.451Z,2.30
2023-02-24T21:48:46.854Z,2.30
2023-02-24T21:51:13.983Z,2.70
2023-02-24T21:53:43.827Z,2.37
2023-02-24T21:56:21.801Z,2.37
2023-02-24T21:59:00.394Z,2.30
2023-02-24T22:01:30.582Z,2.73
2023-02-24T22:04:00.032Z,2.60
2023-02-24T22:06:31.271Z,2.50
2023-02-24T22:08:59.327Z,3.30
2023-02-24T22:11:26.399Z,2.90
2023-02-24T22:13:53.365Z,3.93
2023-02-24T22:16:22.897Z,3.30
2023-02-24T22:18:52.170Z,3.80
2023-02-24T22:21:22.129Z,3.20
2023-02-24T22:23:52.303Z,3.33
2023-02-24T22:26:22.978Z,2.80
2023-02-24T22:28:50.168Z,4.33
2023-02-24T22:31:20.620Z,3.67
2023-02-24T22:33:48.936Z,3.90
2023-02-24T22:36:19.296Z,4.07
2023-02-24T22:38:46.598Z,4.53
2023-02-24T22:41:21.615Z,4.90
2023-02-24T22:43:48.816Z,4.50
2023-02-24T22:46:22.209Z,4.30
2023-02-24T22:48:50.477Z,4.80
2023-02-24T22:51:18.262Z,4.70
2023-02-24T22:53:49.025Z,4.77
2023-02-24T22:56:18.698Z,4.13
2023-02-24T22:58:46.214Z,4.93
2023-02-24T23:01:19.499Z,4.87
2023-02-24T23:03:46.649Z,5.70
2023-02-24T23:06:17.232Z,5.67
2023-02-24T23:08:46.588Z,5.50
2023-02-24T23:11:18.461Z,6.03
2023-02-24T23:13:47.884Z,5.70
2023-02-24T23:16:18.676Z,5.53
2023-02-24T23:18:50.892Z,5.40
2023-02-24T23:21:26.568Z,5.50
2023-02-24T23:23:56.981Z,5.83
2023-02-24T23:26:33.409Z,6.10
2023-02-24T23:29:00.805Z,6.97
2023-02-24T23:31:28.028Z,6.40
2023-02-24T23:33:55.592Z,6.13
2023-02-24T23:36:24.053Z,6.40
2023-02-24T23:38:51.868Z,5.90
2023-02-24T23:41:18.801Z,6.23
2023-02-24T23:43:46.040Z,7.03
2023-02-24T23:46:13.730Z,6.37
2023-02-24T23:48:41.156Z,7.40
2023-02-24T23:51:14.137Z,6.20
2023-02-24T23:53:43.078Z,6.37
2023-02-24T23:56:14.484Z,6.53
2023-02-24T23:58:41.564Z,6.87
